createdAt,value
2018-06-12T00:02:14.632Z,19.30
2018-06-12T00:04:42.992Z,19.20
2018-06-12T00:07:11.274Z,19.20
2018-06-12T00:09:39.650Z,19.20
2018-06-12T00:12:07.926Z,19.20
2018-06-12T00:17:04.387Z,19.10
2018-06-12T00:19:32.711Z,19.20
2018-06-12T00:22:01.028Z,19.10
2018-06-12T00:24:29.377Z,19.10
2018-06-12T00:26:59.165Z,19.10
2018-06-12T00:29:27.515Z,19.10
2018-06-12T00:31:55.800Z,19.10
2018-06-12T00:34:24.140Z,19.00
2018-06-12T00:36:52.489Z,19.00
2018-06-12T00:39:20.763Z,19.10
2018-06-12T00:41:49.008Z,19.10
2018-06-12T00:44:17.287Z,19.10
2018-06-12T00:46:45.642Z,19.00
2018-06-12T00:49:14.688Z,19.00
2018-06-12T00:51:42.979Z,19.00
2018-06-12T00:54:11.284Z,19.00
2018-06-12T00:56:50.983Z,19.00
2018-06-12T00:59:19.949Z,19.00
2018-06-12T01:01:48.273Z,19.00
2018-06-12T01:04:16.539Z,19.00
2018-06-12T01:06:44.867Z,19.00
2018-06-12T01:09:13.195Z,19.00
2018-06-12T01:11:41.496Z,19.00
2018-06-12T01:14:09.769Z,19.00
2018-06-12T01:16:38.072Z,19.00
2018-06-12T01:19:06.296Z,19.00
2018-06-12T01:21:34.602Z,19.00
2018-06-12T01:24:02.876Z,19.00
2018-06-12T01:26:31.124Z,19.00
2018-06-12T01:28:59.437Z,19.00
2018-06-12T01:31:27.724Z,18.80
2018-06-12T01:33:56.051Z,18.80
2018-06-12T01:36:24.819Z,18.80
2018-06-12T01:38:53.124Z,18.80
2018-06-12T01:41:21.376Z,18.80
2018-06-12T01:43:49.776Z,18.80
2018-06-12T01:46:18.121Z,18.80
2018-06-12T01:48:46.374Z,18.80
2018-06-12T01:51:14.740Z,18.80
2018-06-12T01:53:43.097Z,18.80
2018-06-12T01:56:11.382Z,18.80
2018-06-12T01:58:39.690Z,18.80
2018-06-12T02:01:08.135Z,18.80
2018-06-12T02:03:36.440Z,18.80
2018-06-12T02:06:04.727Z,18.80
2018-06-12T02:08:33.038Z,18.80
2018-06-12T02:11:01.356Z,18.80
2018-06-12T02:13:29.696Z,18.80
2018-06-12T02:15:57.981Z,18.80
2018-06-12T02:18:26.324Z,18.80
2018-06-12T02:20:54.571Z,18.80
2018-06-12T02:23:22.970Z,18.80
2018-06-12T02:25:51.226Z,18.80
2018-06-12T02:28:19.968Z,18.80
2018-06-12T02:30:48.224Z,18.80
2018-06-12T02:33:16.468Z,18.80
2018-06-12T02:35:44.774Z,18.80
2018-06-12T02:38:12.991Z,18.80
2018-06-12T02:40:41.270Z,18.80
2018-06-12T02:43:09.560Z,18.80
2018-06-12T02:45:37.858Z,18.80
2018-06-12T02:48:06.241Z,18.80
2018-06-12T02:50:34.599Z,18.80
2018-06-12T02:53:02.861Z,18.70
2018-06-12T02:55:31.063Z,18.60
2018-06-12T02:57:59.372Z,18.60
2018-06-12T03:00:28.220Z,18.50
2018-06-12T03:02:56.521Z,18.50
2018-06-12T03:05:24.779Z,18.50
2018-06-12T03:07:53.026Z,18.50
2018-06-12T03:10:21.328Z,18.50
2018-06-12T03:12:49.568Z,18.50
2018-06-12T03:15:17.951Z,18.50
2018-06-12T03:17:46.281Z,18.50
2018-06-12T03:22:42.518Z,18.50
2018-06-12T03:25:10.797Z,18.50
2018-06-12T03:27:39.052Z,18.50
2018-06-12T03:30:07.438Z,18.50
2018-06-12T03:32:35.714Z,18.50
2018-06-12T03:35:03.960Z,18.60
2018-06-12T03:37:32.343Z,18.50
2018-06-12T03:40:00.571Z,18.50
2018-06-12T03:42:28.839Z,18.40
2018-06-12T03:44:57.107Z,18.40
2018-06-12T03:47:25.420Z,18.40
2018-06-12T03:49:53.774Z,18.40
2018-06-12T03:52:24.058Z,18.30
2018-06-12T03:54:52.483Z,18.30
2018-06-12T03:57:20.859Z,18.40
2018-06-12T03:59:49.161Z,18.40
2018-06-12T04:02:18.185Z,18.40
2018-06-12T04:04:46.377Z,18.40
2018-06-12T04:07:14.956Z,18.40
2018-06-12T04:09:43.313Z,18.40
2018-06-12T04:12:11.624Z,18.30
2018-06-12T04:14:40.058Z,18.30
2018-06-12T04:17:08.290Z,18.40
2018-06-12T04:22:05.075Z,18.40
2018-06-12T04:24:33.427Z,18.40
2018-06-12T04:27:01.731Z,18.40
2018-06-12T04:29:29.947Z,18.40
2018-06-12T04:31:58.204Z,18.40
2018-06-12T04:34:26.565Z,18.40
2018-06-12T04:36:54.816Z,18.40
2018-06-12T04:39:24.203Z,18.40
2018-06-12T04:41:52.501Z,18.40
2018-06-12T04:44:20.824Z,18.40
2018-06-12T04:46:49.102Z,18.40
2018-06-12T04:51:45.459Z,18.40
2018-06-12T04:54:13.720Z,18.40
2018-06-12T04:56:41.936Z,18.40
2018-06-12T04:59:10.267Z,18.40
2018-06-12T05:01:38.532Z,18.40
2018-06-12T05:04:06.843Z,18.30
2018-06-12T05:09:03.457Z,18.30
2018-06-12T05:11:31.745Z,18.20
2018-06-12T05:14:00.042Z,18.10
2018-06-12T05:16:28.386Z,18.10
2018-06-12T05:18:56.616Z,18.10
2018-06-12T05:21:24.888Z,18.20
2018-06-12T05:23:53.147Z,18.20
2018-06-12T05:26:21.512Z,18.10
2018-06-12T05:28:49.769Z,18.10
2018-06-12T05:31:18.134Z,18.10
2018-06-12T05:33:46.433Z,18.10
2018-06-12T05:36:14.728Z,18.10
2018-06-12T05:38:43.059Z,18.10
2018-06-12T05:41:11.404Z,18.10
2018-06-12T05:43:39.753Z,18.10
2018-06-12T05:46:08.016Z,18.20
2018-06-12T05:48:36.247Z,18.20
2018-06-12T05:51:04.700Z,18.20
2018-06-12T05:53:33.051Z,18.10
2018-06-12T05:56:01.328Z,18.00
2018-06-12T05:58:29.614Z,18.00
2018-06-12T06:00:57.904Z,18.00
2018-06-12T06:03:26.155Z,18.00
2018-06-12T06:05:54.511Z,18.00
2018-06-12T06:08:23.260Z,18.00
2018-06-12T06:10:51.535Z,18.00
2018-06-12T06:13:19.939Z,18.00
2018-06-12T06:15:48.209Z,18.00
2018-06-12T06:18:16.528Z,18.00
2018-06-12T06:20:45.323Z,17.90
2018-06-12T06:23:13.592Z,17.80
2018-06-12T06:25:41.932Z,17.70
2018-06-12T06:28:10.262Z,17.70
2018-06-12T06:30:38.599Z,17.70
2018-06-12T06:33:06.850Z,17.70
2018-06-12T06:35:35.082Z,17.70
2018-06-12T06:38:03.332Z,17.70
2018-06-12T06:40:31.590Z,17.70
2018-06-12T06:42:59.982Z,17.60
2018-06-12T06:45:28.223Z,17.60
2018-06-12T06:47:56.495Z,17.70
2018-06-12T06:50:25.323Z,17.70
2018-06-12T06:52:53.589Z,17.70
2018-06-12T06:55:21.933Z,17.70
2018-06-12T06:57:50.208Z,17.70
2018-06-12T07:00:18.405Z,17.60
2018-06-12T07:02:46.634Z,17.70
2018-06-12T07:05:14.865Z,17.70
2018-06-12T07:07:43.188Z,17.70
2018-06-12T07:10:11.388Z,17.70
2018-06-12T07:12:39.628Z,17.80
2018-06-12T07:15:07.917Z,17.80
2018-06-12T07:17:36.187Z,17.80
2018-06-12T07:20:04.413Z,17.80
2018-06-12T07:22:32.675Z,17.80
2018-06-12T07:25:01.109Z,17.80
2018-06-12T07:27:29.442Z,17.80
2018-06-12T07:29:57.698Z,17.70
2018-06-12T07:32:26.000Z,17.70
2018-06-12T07:34:54.303Z,17.70
2018-06-12T07:37:22.508Z,17.70
2018-06-12T07:39:50.776Z,17.80
2018-06-12T07:42:19.142Z,17.80
2018-06-12T07:44:47.435Z,17.80
2018-06-12T07:47:15.675Z,17.80
2018-06-12T07:49:43.923Z,17.80
2018-06-12T07:54:40.199Z,17.80
2018-06-12T07:57:08.527Z,17.90
2018-06-12T07:59:36.876Z,17.90
2018-06-12T08:02:05.237Z,18.00
2018-06-12T08:04:33.925Z,18.00
2018-06-12T08:07:02.228Z,17.90
2018-06-12T08:09:30.677Z,17.90
2018-06-12T08:11:58.984Z,17.90
2018-06-12T08:14:27.265Z,17.90
2018-06-12T08:16:56.646Z,17.90
2018-06-12T08:19:24.945Z,17.90
2018-06-12T08:21:53.283Z,17.90
2018-06-12T08:24:21.625Z,17.90
2018-06-12T08:26:49.918Z,17.90
2018-06-12T08:29:18.228Z,17.90
2018-06-12T08:31:46.528Z,17.80
2018-06-12T08:34:14.901Z,17.80
2018-06-12T08:36:43.454Z,17.90
2018-06-12T08:39:11.739Z,17.90
2018-06-12T08:41:40.193Z,18.00
2018-06-12T08:44:08.481Z,18.00
2018-06-12T08:46:36.834Z,18.00
2018-06-12T08:49:05.470Z,18.00
2018-06-12T08:51:33.735Z,18.00
2018-06-12T08:54:02.888Z,18.00
2018-06-12T08:56:31.191Z,18.00
2018-06-12T08:58:59.523Z,18.00
2018-06-12T09:01:27.774Z,18.00
2018-06-12T09:03:56.091Z,18.00
2018-06-12T09:06:24.587Z,18.00
2018-06-12T09:08:52.818Z,18.00
2018-06-12T09:11:21.192Z,18.00
2018-06-12T09:13:49.451Z,18.00
2018-06-12T09:16:17.775Z,18.10
2018-06-12T09:18:46.113Z,18.10
2018-06-12T09:21:14.483Z,18.20
2018-06-12T09:23:42.792Z,18.20
2018-06-12T09:26:11.112Z,18.20
2018-06-12T09:28:39.354Z,18.20
2018-06-12T09:31:07.604Z,18.30
2018-06-12T09:33:35.924Z,18.40
2018-06-12T09:36:09.731Z,18.40
2018-06-12T09:38:38.048Z,18.40
2018-06-12T09:41:06.339Z,18.40
2018-06-12T09:43:34.745Z,18.50
2018-06-12T09:48:31.131Z,18.50
2018-06-12T09:50:59.444Z,18.40
2018-06-12T09:53:27.733Z,18.50
2018-06-12T09:55:56.005Z,18.50
2018-06-12T09:58:25.006Z,18.50
2018-06-12T10:00:58.717Z,18.50
2018-06-12T10:03:27.235Z,18.50
2018-06-12T10:05:55.633Z,18.50
2018-06-12T10:08:23.969Z,18.60
2018-06-12T10:10:52.306Z,18.60
2018-06-12T10:13:20.607Z,18.60
2018-06-12T10:15:48.979Z,18.60
2018-06-12T10:18:17.274Z,18.60
2018-06-12T10:20:45.579Z,18.60
2018-06-12T10:23:13.881Z,18.60
2018-06-12T10:25:42.267Z,18.60
2018-06-12T10:28:10.566Z,18.50
2018-06-12T10:30:38.822Z,18.50
2018-06-12T10:33:07.149Z,18.40
2018-06-12T10:35:35.497Z,18.40
2018-06-12T10:38:03.849Z,18.40
2018-06-12T10:40:32.303Z,18.40
2018-06-12T10:43:00.672Z,18.40
2018-06-12T10:45:29.260Z,18.40
2018-06-12T10:47:57.630Z,18.40
2018-06-12T10:50:26.004Z,18.40
2018-06-12T10:52:54.311Z,18.40
2018-06-12T10:55:23.437Z,18.40
2018-06-12T10:57:52.655Z,18.40
2018-06-12T11:00:20.928Z,18.40
2018-06-12T11:02:49.354Z,18.40
2018-06-12T11:05:17.749Z,18.40
2018-06-12T11:10:14.105Z,18.50
2018-06-12T11:12:42.384Z,18.50
2018-06-12T11:15:10.754Z,18.50
2018-06-12T11:17:39.041Z,18.60
2018-06-12T11:20:07.374Z,18.60
2018-06-12T11:22:35.643Z,18.60
2018-06-12T11:25:04.063Z,18.60
2018-06-12T11:27:33.112Z,18.60
2018-06-12T11:30:01.409Z,18.60
2018-06-12T11:32:29.700Z,18.60
2018-06-12T11:34:58.015Z,18.70
2018-06-12T11:37:26.573Z,18.80
2018-06-12T11:39:54.880Z,18.90
2018-06-12T11:42:23.173Z,19.00
2018-06-12T11:44:51.527Z,19.10
2018-06-12T11:47:19.846Z,19.10
2018-06-12T11:52:16.319Z,19.20
2018-06-12T11:54:44.824Z,19.10
2018-06-12T11:57:13.166Z,19.10
2018-06-12T11:59:41.599Z,19.10
2018-06-12T12:02:09.969Z,19.20
2018-06-12T12:04:38.294Z,19.30
2018-06-12T12:07:06.675Z,19.30
2018-06-12T12:09:35.003Z,19.30
2018-06-12T12:12:03.263Z,19.20
2018-06-12T12:14:31.629Z,19.10
2018-06-12T12:17:00.027Z,19.10
2018-06-12T12:19:28.320Z,19.10
2018-06-12T12:21:56.682Z,19.20
2018-06-12T12:24:25.069Z,19.20
2018-06-12T12:26:53.464Z,19.30
2018-06-12T12:29:21.868Z,19.30
2018-06-12T12:31:50.091Z,19.20
2018-06-12T12:34:18.369Z,19.30
2018-06-12T12:36:46.611Z,19.30
2018-06-12T12:39:15.720Z,19.40
2018-06-12T12:41:44.092Z,19.40
2018-06-12T12:44:12.414Z,19.40
2018-06-12T12:46:40.740Z,19.40
2018-06-12T12:49:08.984Z,19.40
2018-06-12T12:51:37.313Z,19.40
2018-06-12T12:54:05.875Z,19.40
2018-06-12T12:59:02.181Z,19.50
2018-06-12T13:01:30.590Z,19.60
2018-06-12T13:03:58.904Z,19.60
2018-06-12T13:06:27.188Z,19.50
2018-06-12T13:08:55.530Z,19.60
2018-06-12T13:11:23.799Z,19.40
2018-06-12T13:13:52.096Z,19.40
2018-06-12T13:16:20.381Z,19.50
2018-06-12T13:18:48.729Z,19.40
2018-06-12T13:21:16.988Z,19.40
2018-06-12T13:23:45.946Z,19.50
2018-06-12T13:26:14.168Z,19.40
2018-06-12T13:28:42.554Z,19.40
2018-06-12T13:31:10.849Z,19.50
2018-06-12T13:33:39.178Z,19.50
2018-06-12T13:36:07.356Z,19.50
2018-06-12T13:38:35.666Z,19.50
2018-06-12T13:41:03.997Z,19.70
2018-06-12T13:43:32.347Z,19.70
2018-06-12T13:46:00.601Z,19.80
2018-06-12T13:48:28.906Z,19.80
2018-06-12T13:50:57.156Z,19.80
2018-06-12T13:53:25.417Z,19.90
2018-06-12T13:55:53.758Z,19.70
2018-06-12T13:58:22.049Z,19.70
2018-06-12T14:00:50.361Z,19.60
2018-06-12T14:05:46.667Z,19.50
2018-06-12T14:08:14.936Z,19.40
2018-06-12T14:10:43.220Z,19.30
2018-06-12T14:13:11.510Z,19.30
2018-06-12T14:15:40.067Z,19.30
2018-06-12T14:18:08.320Z,19.40
2018-06-12T14:20:36.694Z,19.40
2018-06-12T14:23:05.132Z,19.30
2018-06-12T14:25:33.449Z,19.30
2018-06-12T14:28:01.666Z,19.40
2018-06-12T14:30:29.954Z,19.40
2018-06-12T14:32:58.325Z,19.40
2018-06-12T14:35:26.549Z,19.40
2018-06-12T14:37:54.842Z,19.40
2018-06-12T14:40:23.211Z,19.40
2018-06-12T14:42:51.451Z,19.30
2018-06-12T14:45:19.737Z,19.40
2018-06-12T14:47:47.992Z,19.30
2018-06-12T14:50:16.734Z,19.30
2018-06-12T14:52:45.024Z,19.20
2018-06-12T14:55:13.252Z,19.30
2018-06-12T14:57:41.575Z,19.30
2018-06-12T15:00:09.883Z,19.40
2018-06-12T15:02:38.122Z,19.30
2018-06-12T15:05:06.422Z,19.30
2018-06-12T15:07:34.648Z,19.20
2018-06-12T15:10:02.933Z,19.20
2018-06-12T15:12:31.232Z,19.20
2018-06-12T15:14:59.460Z,19.20
2018-06-12T15:17:27.712Z,19.20
2018-06-12T15:19:56.641Z,19.20
2018-06-12T15:22:25.063Z,19.30
2018-06-12T15:27:21.355Z,19.30
2018-06-12T15:29:49.609Z,19.30
2018-06-12T15:32:17.872Z,19.20
2018-06-12T15:34:46.232Z,19.20
2018-06-12T15:37:15.367Z,19.10
2018-06-12T15:39:43.645Z,19.10
2018-06-12T15:42:11.988Z,19.10
2018-06-12T15:44:40.716Z,19.10
2018-06-12T15:47:09.010Z,19.10
2018-06-12T15:49:37.727Z,19.10
2018-06-12T15:52:06.067Z,19.00
2018-06-12T15:54:34.434Z,19.00
2018-06-12T15:57:02.756Z,19.00
2018-06-12T15:59:31.069Z,18.90
2018-06-12T16:01:59.371Z,18.90
2018-06-12T16:04:27.579Z,19.00
2018-06-12T16:06:55.912Z,19.00
2018-06-12T16:09:24.174Z,19.10
2018-06-12T16:11:52.475Z,19.10
2018-06-12T16:14:20.855Z,19.10
2018-06-12T16:16:49.106Z,19.00
2018-06-12T16:19:17.429Z,18.90
2018-06-12T16:21:45.703Z,18.80
2018-06-12T16:24:14.140Z,18.90
2018-06-12T16:29:10.763Z,18.90
2018-06-12T16:31:39.045Z,18.90
2018-06-12T16:34:07.302Z,19.00
2018-06-12T16:36:35.778Z,19.00
2018-06-12T16:39:05.841Z,19.10
2018-06-12T16:41:34.084Z,19.10
2018-06-12T16:44:02.307Z,19.20
2018-06-12T16:46:30.585Z,19.30
2018-06-12T16:48:58.837Z,19.40
2018-06-12T16:51:27.828Z,19.40
2018-06-12T16:53:56.143Z,19.40
2018-06-12T16:56:24.392Z,19.40
2018-06-12T16:58:52.657Z,19.50
2018-06-12T17:01:20.936Z,19.50
2018-06-12T17:03:49.167Z,19.50
2018-06-12T17:06:17.422Z,19.60
2018-06-12T17:08:45.794Z,19.60
2018-06-12T17:11:14.020Z,19.60
2018-06-12T17:13:42.335Z,19.60
2018-06-12T17:16:10.719Z,19.60
2018-06-12T17:18:38.935Z,19.60
2018-06-12T17:21:07.284Z,19.60
2018-06-12T17:23:35.615Z,19.60
2018-06-12T17:26:03.914Z,19.50
2018-06-12T17:28:32.221Z,19.50
2018-06-12T17:31:00.479Z,19.50
2018-06-12T17:33:28.742Z,19.50
2018-06-12T17:35:57.020Z,19.50
2018-06-12T17:38:25.308Z,19.50
2018-06-12T17:40:53.573Z,19.50
2018-06-12T17:43:21.987Z,19.40
2018-06-12T17:45:50.210Z,19.30
2018-06-12T17:48:18.499Z,19.30
2018-06-12T17:50:46.817Z,19.30
2018-06-12T17:53:15.035Z,19.30
2018-06-12T17:55:43.360Z,19.40
2018-06-12T17:58:11.627Z,19.40
2018-06-12T18:00:39.854Z,19.50
2018-06-12T18:03:08.212Z,19.50
2018-06-12T18:05:36.487Z,19.50
2018-06-12T18:08:04.827Z,19.50
2018-06-12T18:10:33.082Z,19.40
2018-06-12T18:13:01.316Z,19.40
2018-06-12T18:15:29.708Z,19.40
2018-06-12T18:17:58.103Z,19.40
2018-06-12T18:20:26.289Z,19.40
2018-06-12T18:22:54.560Z,19.40
2018-06-12T18:25:22.911Z,19.40
2018-06-12T18:27:51.196Z,19.40
2018-06-12T18:30:19.776Z,19.40
2018-06-12T18:32:48.033Z,19.30
2018-06-12T18:35:18.281Z,19.30
2018-06-12T18:37:47.324Z,19.30
2018-06-12T18:40:15.737Z,19.30
2018-06-12T18:42:44.466Z,19.30
2018-06-12T18:45:12.708Z,19.30
2018-06-12T18:47:40.987Z,19.30
2018-06-12T18:50:09.274Z,19.30
2018-06-12T18:52:37.550Z,19.30
2018-06-12T18:55:06.290Z,19.30
2018-06-12T18:57:34.576Z,19.20
2018-06-12T19:00:02.839Z,19.20
2018-06-12T19:02:31.103Z,19.10
2018-06-12T19:04:59.424Z,19.00
2018-06-12T19:07:27.744Z,19.10
2018-06-12T19:09:55.975Z,19.00
2018-06-12T19:12:24.224Z,19.00
2018-06-12T19:14:52.485Z,19.00
2018-06-12T19:17:20.768Z,19.00
2018-06-12T19:19:49.054Z,19.00
2018-06-12T19:24:45.366Z,19.00
2018-06-12T19:27:13.607Z,18.90
2018-06-12T19:29:41.954Z,19.00
2018-06-12T19:32:10.320Z,19.00
2018-06-12T19:34:38.640Z,19.00
2018-06-12T19:37:06.912Z,18.90
2018-06-12T19:39:35.186Z,19.00
2018-06-12T19:42:03.653Z,18.90
2018-06-12T19:44:31.991Z,18.90
2018-06-12T19:47:01.805Z,18.80
2018-06-12T19:49:30.053Z,18.70
2018-06-12T19:51:58.377Z,18.50
2018-06-12T19:54:26.789Z,18.50
2018-06-12T19:56:55.040Z,18.50
2018-06-12T19:59:23.337Z,18.50
2018-06-12T20:01:51.634Z,18.40
2018-06-12T20:04:19.912Z,18.40
2018-06-12T20:06:48.785Z,18.40
2018-06-12T20:09:17.148Z,18.40
2018-06-12T20:11:45.379Z,18.40
2018-06-12T20:14:13.659Z,18.40
2018-06-12T20:19:09.953Z,18.50
2018-06-12T20:21:38.240Z,18.40
2018-06-12T20:24:06.530Z,18.40
2018-06-12T20:26:34.845Z,18.50
2018-06-12T20:29:04.032Z,18.50
2018-06-12T20:31:32.381Z,18.50
2018-06-12T20:34:00.640Z,18.50
2018-06-12T20:36:28.896Z,18.50
2018-06-12T20:38:57.331Z,18.50
2018-06-12T20:41:25.652Z,18.40
2018-06-12T20:43:54.042Z,18.40
2018-06-12T20:46:22.334Z,18.40
2018-06-12T20:48:50.627Z,18.40
2018-06-12T20:51:18.927Z,18.40
2018-06-12T20:53:47.154Z,18.40
2018-06-12T20:56:15.490Z,18.40
2018-06-12T20:58:43.730Z,18.30
2018-06-12T21:01:12.035Z,18.40
2018-06-12T21:03:40.300Z,18.30
2018-06-12T21:06:09.075Z,18.30
2018-06-12T21:08:37.453Z,18.40
2018-06-12T21:11:05.731Z,18.30
2018-06-12T21:13:34.018Z,18.30
2018-06-12T21:16:02.307Z,18.30
2018-06-12T21:18:30.574Z,18.30
2018-06-12T21:20:58.880Z,18.20
2018-06-12T21:23:27.367Z,18.20
2018-06-12T21:28:23.671Z,18.10
2018-06-12T21:30:51.911Z,18.20
2018-06-12T21:33:20.168Z,18.20
2018-06-12T21:35:48.410Z,18.10
2018-06-12T21:38:16.762Z,18.10
2018-06-12T21:40:45.057Z,18.00
2018-06-12T21:43:14.183Z,18.00
2018-06-12T21:45:42.558Z,18.00
2018-06-12T21:48:11.364Z,18.00
2018-06-12T21:50:39.635Z,18.00
2018-06-12T21:53:07.935Z,18.00
2018-06-12T21:55:36.182Z,18.00
2018-06-12T21:58:04.496Z,17.90
2018-06-12T22:00:33.752Z,17.90
2018-06-12T22:03:02.173Z,17.90
2018-06-12T22:05:30.432Z,18.00
2018-06-12T22:07:58.661Z,18.10
2018-06-12T22:10:26.963Z,18.10
2018-06-12T22:12:55.235Z,18.10
2018-06-12T22:15:23.495Z,18.00
2018-06-12T22:17:52.487Z,18.00
2018-06-12T22:20:20.742Z,18.00
2018-06-12T22:22:49.063Z,18.00
2018-06-12T22:25:18.365Z,18.00
2018-06-12T22:27:46.640Z,18.00
2018-06-12T22:30:15.342Z,18.10
2018-06-12T22:32:43.604Z,18.10
2018-06-12T22:35:11.888Z,18.10
2018-06-12T22:37:40.097Z,18.00
2018-06-12T22:42:36.414Z,18.00
2018-06-12T22:45:04.763Z,17.90
2018-06-12T22:47:33.041Z,17.90
2018-06-12T22:50:01.324Z,17.90
2018-06-12T22:52:29.603Z,17.90
2018-06-12T22:54:57.861Z,17.90
2018-06-12T22:59:54.208Z,18.00
2018-06-12T23:02:22.709Z,18.10
2018-06-12T23:04:50.963Z,18.10
2018-06-12T23:07:19.203Z,18.10
2018-06-12T23:09:47.490Z,18.00
2018-06-12T23:12:15.815Z,18.00
2018-06-12T23:14:44.092Z,18.00
2018-06-12T23:17:12.403Z,18.00
2018-06-12T23:19:52.064Z,18.00
2018-06-12T23:22:20.992Z,18.00
2018-06-12T23:24:49.304Z,18.00
2018-06-12T23:27:17.591Z,17.90
2018-06-12T23:29:45.919Z,17.90
2018-06-12T23:32:14.199Z,17.90
2018-06-12T23:34:42.552Z,17.90
2018-06-12T23:37:10.861Z,17.90
2018-06-12T23:39:39.290Z,17.80
2018-06-12T23:42:07.696Z,17.70
2018-06-12T23:44:35.972Z,17.70
2018-06-12T23:47:04.205Z,17.70
2018-06-12T23:49:32.982Z,17.70
2018-06-12T23:52:01.296Z,17.70
2018-06-12T23:54:29.580Z,17.70
2018-06-12T23:56:57.831Z,17.70
2018-06-12T23:59:26.139Z,17.70
